createdAt,value
2017-06-24T00:00:00.838Z,7.63
2017-06-24T00:02:34.671Z,8.10
2017-06-24T00:05:06.976Z,7.43
2017-06-24T00:07:39.219Z,7.00
2017-06-24T00:10:11.655Z,7.37
2017-06-24T00:12:44.596Z,7.37
2017-06-24T00:15:16.765Z,7.50
2017-06-24T00:17:48.934Z,7.83
2017-06-24T00:20:21.621Z,8.10
2017-06-24T00:22:53.656Z,7.17
2017-06-24T00:25:26.997Z,7.87
2017-06-24T00:27:59.834Z,8.57
2017-06-24T00:30:32.003Z,8.00
2017-06-24T00:33:04.559Z,7.70
2017-06-24T00:35:36.655Z,7.63
2017-06-24T00:38:09.032Z,8.17
2017-06-24T00:40:41.442Z,7.37
2017-06-24T00:43:13.843Z,8.10
2017-06-24T00:45:46.246Z,6.83
2017-06-24T00:48:18.891Z,7.27
2017-06-24T00:50:51.280Z,6.80
2017-06-24T00:53:23.699Z,7.30
2017-06-24T00:55:56.163Z,7.50
2017-06-24T00:58:28.563Z,6.60
2017-06-24T01:01:01.404Z,7.33
2017-06-24T01:03:33.503Z,6.60
2017-06-24T01:06:05.760Z,7.07
2017-06-24T01:08:38.132Z,7.30
2017-06-24T01:11:12.144Z,7.93
2017-06-24T01:13:44.899Z,6.43
2017-06-24T01:16:17.571Z,6.90
2017-06-24T01:18:49.772Z,6.80
2017-06-24T01:21:22.200Z,7.97
2017-06-24T01:23:54.999Z,6.83
2017-06-24T01:26:27.048Z,7.70
2017-06-24T01:28:59.768Z,7.00
2017-06-24T01:31:31.819Z,6.97
2017-06-24T01:34:04.370Z,7.10
2017-06-24T01:36:36.665Z,6.83
2017-06-24T01:39:09.287Z,7.60
2017-06-24T01:41:41.488Z,7.27
2017-06-24T01:44:14.339Z,6.80
2017-06-24T01:46:46.363Z,6.70
2017-06-24T01:49:19.591Z,7.43
2017-06-24T01:51:52.280Z,6.93
2017-06-24T01:54:24.767Z,6.83
2017-06-24T01:56:57.088Z,6.83
2017-06-24T01:59:30.451Z,7.10
2017-06-24T02:02:02.787Z,7.07
2017-06-24T02:04:35.302Z,7.80
2017-06-24T02:07:07.600Z,7.67
2017-06-24T02:09:39.923Z,6.90
2017-06-24T02:12:11.756Z,6.97
2017-06-24T02:14:44.148Z,6.43
2017-06-24T02:17:16.510Z,6.47
2017-06-24T02:19:48.816Z,6.63
2017-06-24T02:22:21.164Z,6.17
2017-06-24T02:24:53.623Z,6.70
2017-06-24T02:27:26.285Z,7.20
2017-06-24T02:30:00.482Z,6.60
2017-06-24T02:32:32.940Z,6.63
2017-06-24T02:35:05.408Z,6.70
2017-06-24T02:37:37.675Z,6.83
2017-06-24T02:40:10.303Z,6.30
2017-06-24T02:42:42.462Z,7.00
2017-06-24T02:45:14.960Z,6.87
2017-06-24T02:47:47.248Z,6.37
2017-06-24T02:50:19.716Z,6.20
2017-06-24T02:52:52.174Z,6.40
2017-06-24T02:55:24.845Z,5.80
2017-06-24T02:57:57.302Z,5.77
2017-06-24T03:00:29.564Z,5.80
2017-06-24T03:03:01.864Z,5.60
2017-06-24T03:05:33.983Z,5.63
2017-06-24T03:08:06.408Z,5.73
2017-06-24T03:10:38.919Z,5.77
2017-06-24T03:13:11.000Z,5.70
2017-06-24T03:15:43.495Z,6.17
2017-06-24T03:18:15.803Z,5.17
2017-06-24T03:20:48.284Z,5.70
2017-06-24T03:23:20.683Z,6.00
2017-06-24T03:25:53.304Z,6.30
2017-06-24T03:28:26.211Z,6.37
2017-06-24T03:30:58.768Z,6.60
2017-06-24T03:33:31.400Z,6.43
2017-06-24T03:36:03.745Z,6.00
2017-06-24T03:38:36.009Z,6.33
2017-06-24T03:41:08.572Z,5.43
2017-06-24T03:43:40.866Z,5.47
2017-06-24T03:46:13.277Z,5.50
2017-06-24T03:48:45.635Z,5.00
2017-06-24T03:51:18.001Z,6.70
2017-06-24T03:53:50.442Z,5.53
2017-06-24T03:56:23.262Z,6.53
2017-06-24T03:58:55.132Z,5.93
2017-06-24T04:01:27.525Z,6.70
2017-06-24T04:04:00.310Z,5.80
2017-06-24T04:06:32.491Z,5.43
2017-06-24T04:09:04.723Z,6.50
2017-06-24T04:11:37.172Z,5.93
2017-06-24T04:14:11.098Z,6.30
2017-06-24T04:16:43.279Z,5.83
2017-06-24T04:19:15.416Z,6.00
2017-06-24T04:21:47.679Z,5.97
2017-06-24T04:24:20.086Z,6.07
2017-06-24T04:26:52.454Z,6.10
2017-06-24T04:29:24.718Z,6.23
2017-06-24T04:31:57.076Z,5.87
2017-06-24T04:34:30.368Z,6.30
2017-06-24T04:37:03.060Z,5.13
2017-06-24T04:39:35.247Z,5.77
2017-06-24T04:42:09.246Z,5.97
2017-06-24T04:44:40.995Z,4.63
2017-06-24T04:47:13.424Z,5.37
2017-06-24T04:49:46.044Z,5.00
2017-06-24T04:52:18.227Z,4.87
2017-06-24T04:54:51.003Z,4.67
2017-06-24T04:57:26.195Z,4.77
2017-06-24T04:59:58.608Z,5.60
2017-06-24T05:02:31.287Z,5.50
2017-06-24T05:05:03.476Z,5.77
2017-06-24T05:07:36.619Z,5.70
2017-06-24T05:10:09.546Z,5.60
2017-06-24T05:12:41.643Z,5.77
2017-06-24T05:15:14.104Z,4.63
2017-06-24T05:17:46.533Z,4.90
2017-06-24T05:20:18.991Z,6.33
2017-06-24T05:22:51.446Z,6.00
2017-06-24T05:25:23.899Z,5.43
2017-06-24T05:27:57.279Z,5.33
2017-06-24T05:30:29.715Z,5.20
2017-06-24T05:33:02.580Z,5.53
2017-06-24T05:35:34.473Z,6.00
2017-06-24T05:38:06.907Z,5.73
2017-06-24T05:40:39.307Z,6.03
2017-06-24T05:43:11.708Z,5.70
2017-06-24T05:45:44.107Z,5.33
2017-06-24T05:48:17.295Z,5.90
2017-06-24T05:50:50.145Z,6.03
2017-06-24T05:53:22.180Z,5.33
2017-06-24T05:55:54.623Z,5.47
2017-06-24T05:58:26.938Z,6.03
2017-06-24T06:00:59.355Z,6.60
2017-06-24T06:03:31.701Z,7.53
2017-06-24T06:06:04.219Z,5.30
2017-06-24T06:08:36.408Z,6.27
2017-06-24T06:11:08.972Z,6.30
2017-06-24T06:13:41.484Z,8.10
2017-06-24T06:16:13.912Z,7.83
2017-06-24T06:18:46.351Z,7.50
2017-06-24T06:21:18.767Z,7.53
2017-06-24T06:23:52.299Z,6.60
2017-06-24T06:26:25.659Z,6.10
2017-06-24T06:28:58.563Z,7.13
2017-06-24T06:31:30.553Z,7.17
2017-06-24T06:34:02.856Z,7.70
2017-06-24T06:36:35.221Z,8.43
2017-06-24T06:39:08.577Z,7.27
2017-06-24T06:41:41.164Z,7.70
2017-06-24T06:44:13.639Z,7.70
2017-06-24T06:46:46.017Z,7.03
2017-06-24T06:49:18.316Z,8.50
2017-06-24T06:51:50.835Z,7.90
2017-06-24T06:54:23.275Z,9.17
2017-06-24T06:56:55.531Z,7.90
2017-06-24T06:59:27.976Z,8.50
2017-06-24T07:02:00.324Z,9.63
2017-06-24T07:04:32.899Z,8.57
2017-06-24T07:07:05.028Z,8.80
2017-06-24T07:09:37.455Z,9.50
2017-06-24T07:12:10.123Z,9.50
2017-06-24T07:14:42.232Z,9.40
2017-06-24T07:17:15.483Z,9.80
2017-06-24T07:19:48.366Z,10.13
2017-06-24T07:22:20.432Z,10.77
2017-06-24T07:24:53.115Z,10.27
2017-06-24T07:27:25.382Z,11.00
2017-06-24T07:29:57.675Z,9.53
2017-06-24T07:32:29.995Z,13.60
2017-06-24T07:35:02.467Z,12.83
2017-06-24T07:37:34.775Z,12.73
2017-06-24T07:40:07.332Z,13.70
2017-06-24T07:42:39.669Z,13.47
2017-06-24T07:45:12.063Z,13.20
2017-06-24T07:47:44.494Z,12.90
2017-06-24T07:50:16.851Z,13.53
2017-06-24T07:52:49.905Z,13.13
2017-06-24T07:55:22.748Z,13.80
2017-06-24T07:57:55.119Z,14.37
2017-06-24T08:00:28.383Z,15.10
2017-06-24T08:03:00.782Z,14.10
2017-06-24T08:05:34.079Z,14.63
2017-06-24T08:08:06.739Z,14.17
2017-06-24T08:10:38.988Z,14.97
2017-06-24T08:13:11.303Z,15.67
2017-06-24T08:15:43.675Z,14.20
2017-06-24T08:18:16.086Z,17.50
2017-06-24T08:20:48.546Z,16.70
2017-06-24T08:23:20.851Z,15.97
2017-06-24T08:25:53.255Z,17.90
2017-06-24T08:28:25.663Z,16.80
2017-06-24T08:30:58.035Z,18.03
2017-06-24T08:33:30.468Z,17.00
2017-06-24T08:36:02.878Z,17.37
2017-06-24T08:38:35.255Z,16.50
2017-06-24T08:41:07.900Z,17.27
2017-06-24T08:43:40.992Z,17.87
2017-06-24T08:46:13.297Z,18.30
2017-06-24T08:48:45.659Z,18.60
2017-06-24T08:51:18.052Z,15.93
2017-06-24T08:53:57.417Z,17.40
2017-06-24T08:56:29.983Z,17.40
2017-06-24T08:59:02.387Z,18.40
2017-06-24T09:01:34.733Z,14.80
2017-06-24T09:04:07.119Z,16.33
2017-06-24T09:06:39.555Z,16.50
2017-06-24T09:09:11.964Z,16.83
2017-06-24T09:11:45.311Z,15.50
2017-06-24T09:14:17.735Z,14.73
2017-06-24T09:16:51.000Z,16.50
2017-06-24T09:19:23.691Z,17.27
2017-06-24T09:21:56.062Z,15.80
2017-06-24T09:24:28.503Z,14.43
2017-06-24T09:27:00.976Z,15.07
2017-06-24T09:29:34.127Z,14.97
2017-06-24T09:32:06.807Z,15.10
2017-06-24T09:34:39.132Z,15.20
2017-06-24T09:37:12.470Z,15.37
2017-06-24T09:39:44.880Z,14.53
2017-06-24T09:42:17.220Z,16.60
2017-06-24T09:44:49.547Z,15.47
2017-06-24T09:47:24.939Z,15.27
2017-06-24T09:49:58.204Z,15.33
2017-06-24T09:52:31.251Z,15.77
2017-06-24T09:55:03.358Z,16.13
2017-06-24T09:57:35.748Z,17.40
2017-06-24T10:00:08.136Z,15.53
2017-06-24T10:02:40.566Z,16.87
2017-06-24T10:05:12.906Z,15.17
2017-06-24T10:07:46.129Z,16.33
2017-06-24T10:10:18.699Z,18.07
2017-06-24T10:12:51.083Z,15.57
2017-06-24T10:15:24.344Z,15.10
2017-06-24T10:17:56.804Z,15.67
2017-06-24T10:20:29.511Z,13.60
2017-06-24T10:23:01.733Z,15.13
2017-06-24T10:25:34.007Z,12.53
2017-06-24T10:28:06.759Z,12.43
2017-06-24T10:30:39.033Z,11.90
2017-06-24T10:33:11.417Z,11.33
2017-06-24T10:35:43.723Z,12.33
2017-06-24T10:38:16.096Z,9.37
2017-06-24T10:40:48.891Z,11.40
2017-06-24T10:43:20.931Z,11.30
2017-06-24T10:45:53.252Z,10.20
2017-06-24T10:48:25.665Z,10.90
2017-06-24T10:50:58.622Z,11.10
2017-06-24T10:53:30.490Z,11.10
2017-06-24T10:56:02.860Z,10.60
2017-06-24T10:58:35.307Z,9.10
2017-06-24T11:01:07.895Z,7.80
2017-06-24T11:03:40.999Z,7.80
2017-06-24T11:06:13.562Z,9.77
2017-06-24T11:08:46.071Z,10.20
2017-06-24T11:11:18.394Z,10.07
2017-06-24T11:13:50.867Z,9.20
2017-06-24T11:16:23.468Z,9.93
2017-06-24T11:18:55.575Z,10.80
2017-06-24T11:21:27.867Z,10.23
2017-06-24T11:24:00.220Z,10.37
2017-06-24T11:26:32.659Z,8.67
2017-06-24T11:29:05.047Z,9.30
2017-06-24T11:31:37.603Z,8.00
2017-06-24T11:34:11.123Z,8.50
2017-06-24T11:36:43.146Z,7.50
2017-06-24T11:39:15.569Z,7.57
2017-06-24T11:41:47.977Z,6.63
2017-06-24T11:44:20.418Z,7.50
2017-06-24T11:46:52.869Z,7.23
2017-06-24T11:49:25.652Z,8.10
2017-06-24T11:51:57.551Z,8.30
2017-06-24T11:54:29.899Z,8.83
2017-06-24T11:57:02.489Z,9.73
2017-06-24T11:59:34.843Z,10.07
2017-06-24T12:02:08.171Z,9.40
2017-06-24T12:04:41.562Z,9.33
2017-06-24T12:07:14.391Z,9.43
2017-06-24T12:09:46.615Z,9.80
2017-06-24T12:12:18.868Z,10.13
2017-06-24T12:14:51.276Z,10.17
2017-06-24T12:17:24.522Z,9.77
2017-06-24T12:19:57.111Z,9.60
2017-06-24T12:22:30.501Z,10.40
2017-06-24T12:25:02.992Z,11.40
2017-06-24T12:27:35.425Z,9.93
2017-06-24T12:30:07.698Z,10.70
2017-06-24T12:32:41.215Z,12.20
2017-06-24T12:35:13.639Z,12.47
2017-06-24T12:37:47.598Z,11.20
2017-06-24T12:40:19.406Z,11.27
2017-06-24T12:42:51.843Z,11.43
2017-06-24T12:45:24.251Z,10.27
2017-06-24T12:47:56.687Z,11.90
2017-06-24T12:50:29.260Z,10.50
2017-06-24T12:53:01.240Z,10.53
2017-06-24T12:55:33.524Z,11.27
2017-06-24T12:58:05.878Z,11.60
2017-06-24T13:00:38.562Z,10.83
2017-06-24T13:03:11.702Z,11.33
2017-06-24T13:05:44.119Z,12.53
2017-06-24T13:08:16.461Z,10.30
2017-06-24T13:10:49.380Z,12.00
2017-06-24T13:13:22.213Z,11.00
2017-06-24T13:15:54.846Z,11.93
2017-06-24T13:18:27.078Z,11.10
2017-06-24T13:20:59.443Z,11.30
2017-06-24T13:23:31.811Z,10.67
2017-06-24T13:28:43.784Z,9.57
2017-06-24T13:31:16.456Z,11.17
2017-06-24T13:33:49.312Z,9.70
2017-06-24T13:36:21.744Z,9.90
2017-06-24T13:38:54.208Z,10.80
2017-06-24T13:41:27.415Z,8.90
2017-06-24T13:43:59.994Z,10.13
2017-06-24T13:46:32.292Z,8.87
2017-06-24T13:49:05.581Z,10.10
2017-06-24T13:51:38.012Z,9.53
2017-06-24T13:54:10.584Z,9.40
2017-06-24T13:56:43.039Z,9.10
2017-06-24T13:59:15.294Z,9.73
2017-06-24T14:01:47.879Z,9.23
2017-06-24T14:04:19.964Z,7.03
2017-06-24T14:06:52.329Z,9.73
2017-06-24T14:09:25.035Z,9.97
2017-06-24T14:11:57.402Z,8.90
2017-06-24T14:14:29.780Z,8.17
2017-06-24T14:17:02.041Z,10.10
2017-06-24T14:19:34.359Z,9.80
2017-06-24T14:22:06.620Z,8.33
2017-06-24T14:24:39.084Z,9.23
2017-06-24T14:27:11.742Z,8.90
2017-06-24T14:29:43.911Z,8.80
2017-06-24T14:32:16.270Z,8.83
2017-06-24T14:34:48.784Z,8.73
2017-06-24T14:37:21.163Z,8.40
2017-06-24T14:39:53.549Z,8.20
2017-06-24T14:42:27.718Z,7.90
2017-06-24T14:45:00.953Z,7.97
2017-06-24T14:47:32.744Z,7.10
2017-06-24T14:50:05.072Z,7.67
2017-06-24T14:52:38.275Z,7.80
2017-06-24T14:55:11.273Z,8.40
2017-06-24T14:57:43.441Z,8.07
2017-06-24T15:00:16.129Z,9.17
2017-06-24T15:02:48.463Z,8.83
2017-06-24T15:05:20.603Z,8.23
2017-06-24T15:07:52.916Z,6.30
2017-06-24T15:10:25.418Z,7.93
2017-06-24T15:12:57.963Z,8.27
2017-06-24T15:15:30.088Z,8.07
2017-06-24T15:18:02.547Z,7.20
2017-06-24T15:20:34.811Z,9.40
2017-06-24T15:23:07.217Z,7.70
2017-06-24T15:25:39.650Z,8.13
2017-06-24T15:28:12.880Z,7.40
2017-06-24T15:30:45.424Z,7.10
2017-06-24T15:33:18.187Z,7.87
2017-06-24T15:35:50.203Z,6.87
2017-06-24T15:38:23.044Z,8.27
2017-06-24T15:40:55.136Z,8.40
2017-06-24T15:43:27.520Z,8.43
2017-06-24T15:46:00.815Z,9.40
2017-06-24T15:48:33.251Z,8.50
2017-06-24T15:51:05.640Z,7.67
2017-06-24T15:53:38.189Z,9.63
2017-06-24T15:56:10.556Z,9.60
2017-06-24T15:58:42.933Z,9.90
2017-06-24T16:01:15.610Z,9.47
2017-06-24T16:03:47.621Z,9.97
2017-06-24T16:06:20.142Z,9.60
2017-06-24T16:08:52.720Z,9.20
2017-06-24T16:11:24.872Z,10.77
2017-06-24T16:13:57.994Z,11.07
2017-06-24T16:16:30.677Z,10.67
2017-06-24T16:19:03.352Z,10.93
2017-06-24T16:21:35.699Z,10.33
2017-06-24T16:24:08.708Z,10.10
2017-06-24T16:26:41.271Z,11.30
2017-06-24T16:29:13.651Z,10.60
2017-06-24T16:31:46.081Z,10.53
2017-06-24T16:34:18.615Z,9.93
2017-06-24T16:36:51.690Z,10.00
2017-06-24T16:39:24.088Z,9.37
2017-06-24T16:41:57.367Z,9.97
2017-06-24T16:44:29.840Z,8.90
2017-06-24T16:47:02.272Z,10.07
2017-06-24T16:49:35.064Z,10.17
2017-06-24T16:52:07.011Z,8.93
2017-06-24T16:54:39.415Z,9.60
2017-06-24T16:57:11.899Z,9.10
2017-06-24T16:59:44.131Z,10.70
2017-06-24T17:02:16.859Z,9.50
2017-06-24T17:04:48.844Z,9.63
2017-06-24T17:07:21.279Z,9.97
2017-06-24T17:09:53.682Z,8.37
2017-06-24T17:12:27.702Z,11.30
2017-06-24T17:15:01.192Z,11.70
2017-06-24T17:17:34.644Z,10.83
2017-06-24T17:20:07.071Z,11.63
2017-06-24T17:22:39.483Z,13.67
2017-06-24T17:25:11.624Z,11.60
2017-06-24T17:27:44.027Z,14.20
2017-06-24T17:30:16.412Z,14.33
2017-06-24T17:32:48.884Z,13.90
2017-06-24T17:35:21.519Z,15.50
2017-06-24T17:37:53.557Z,14.57
2017-06-24T17:40:26.095Z,15.80
2017-06-24T17:42:58.301Z,13.97
2017-06-24T17:45:31.827Z,14.90
2017-06-24T17:48:04.077Z,15.87
2017-06-24T17:50:36.817Z,14.40
2017-06-24T17:53:08.779Z,16.40
2017-06-24T17:55:41.064Z,15.50
2017-06-24T17:58:13.891Z,14.57
2017-06-24T18:00:45.855Z,14.30
2017-06-24T18:03:18.239Z,14.90
2017-06-24T18:05:50.638Z,13.43
2017-06-24T18:08:22.967Z,14.97
2017-06-24T18:11:37.344Z,14.20
2017-06-24T18:14:09.468Z,13.67
2017-06-24T18:16:42.813Z,14.20
2017-06-24T18:19:15.144Z,14.63
2017-06-24T18:21:47.564Z,13.60
2017-06-24T18:24:20.731Z,14.20
2017-06-24T18:26:53.408Z,13.00
2017-06-24T18:29:25.763Z,13.93
2017-06-24T18:31:59.041Z,15.10
2017-06-24T18:34:31.496Z,14.37
2017-06-24T18:37:03.831Z,14.40
2017-06-24T18:39:36.148Z,15.00
2017-06-24T18:42:08.375Z,15.77
2017-06-24T18:44:40.803Z,15.47
2017-06-24T18:47:13.246Z,15.23
2017-06-24T18:49:45.556Z,15.60
2017-06-24T18:52:17.932Z,14.27
2017-06-24T18:54:51.226Z,14.33
2017-06-24T18:57:24.699Z,15.07
2017-06-24T18:59:57.227Z,14.77
2017-06-24T19:02:29.591Z,14.83
2017-06-24T19:05:02.012Z,14.87
2017-06-24T19:07:34.399Z,12.93
2017-06-24T19:10:06.689Z,13.90
2017-06-24T19:12:39.156Z,13.27
2017-06-24T19:15:11.456Z,14.10
2017-06-24T19:17:43.874Z,13.73
2017-06-24T19:20:16.388Z,14.33
2017-06-24T19:22:49.019Z,13.77
2017-06-24T19:25:21.137Z,12.30
2017-06-24T19:27:53.472Z,14.07
2017-06-24T19:30:25.815Z,14.10
2017-06-24T19:32:58.448Z,13.40
2017-06-24T19:35:31.401Z,14.07
2017-06-24T19:38:03.207Z,13.87
2017-06-24T19:40:35.587Z,13.30
2017-06-24T19:43:08.024Z,13.83
2017-06-24T19:45:40.443Z,14.00
2017-06-24T19:48:12.983Z,12.60
2017-06-24T19:50:45.173Z,13.00
2017-06-24T19:53:17.464Z,13.47
2017-06-24T19:55:49.836Z,14.93
2017-06-24T19:58:22.092Z,13.80
2017-06-24T20:00:54.547Z,13.50
2017-06-24T20:03:26.955Z,13.83
2017-06-24T20:05:59.236Z,14.57
2017-06-24T20:08:32.048Z,12.50
2017-06-24T20:11:04.203Z,13.20
2017-06-24T20:13:36.429Z,11.53
2017-06-24T20:16:08.888Z,12.20
2017-06-24T20:18:41.506Z,12.00
2017-06-24T20:21:13.827Z,12.20
2017-06-24T20:23:46.204Z,11.43
2017-06-24T20:26:18.707Z,10.73
2017-06-24T20:28:52.256Z,10.53
2017-06-24T20:31:25.231Z,10.60
2017-06-24T20:33:58.536Z,11.10
2017-06-24T20:36:31.039Z,9.03
2017-06-24T20:39:03.372Z,9.43
2017-06-24T20:41:35.725Z,9.30
2017-06-24T20:44:08.354Z,10.03
2017-06-24T20:46:40.353Z,9.57
2017-06-24T20:49:12.792Z,9.03
2017-06-24T20:51:45.289Z,9.70
2017-06-24T20:54:18.217Z,10.73
2017-06-24T20:56:51.411Z,10.20
2017-06-24T20:59:23.437Z,8.30
2017-06-24T21:01:55.811Z,9.33
2017-06-24T21:04:28.217Z,8.37
2017-06-24T21:07:00.711Z,9.83
2017-06-24T21:09:34.038Z,8.83
2017-06-24T21:12:07.175Z,8.63
2017-06-24T21:14:39.816Z,8.90
2017-06-24T21:17:12.676Z,8.10
2017-06-24T21:19:45.370Z,7.80
2017-06-24T21:22:18.135Z,8.33
2017-06-24T21:24:50.529Z,8.17
2017-06-24T21:27:22.971Z,8.67
2017-06-24T21:29:55.387Z,8.43
2017-06-24T21:32:27.735Z,9.10
2017-06-24T21:35:00.060Z,8.10
2017-06-24T21:37:32.501Z,8.20
2017-06-24T21:40:04.767Z,8.63
2017-06-24T21:42:37.088Z,8.30
2017-06-24T21:45:09.523Z,8.40
2017-06-24T21:47:42.849Z,8.50
2017-06-24T21:50:15.184Z,9.00
2017-06-24T21:52:47.537Z,8.70
2017-06-24T21:55:19.981Z,9.47
2017-06-24T21:57:52.312Z,9.37
2017-06-24T22:00:24.727Z,8.93
2017-06-24T22:02:57.055Z,8.70
2017-06-24T22:05:29.702Z,7.60
2017-06-24T22:08:01.834Z,8.60
2017-06-24T22:10:34.339Z,7.77
2017-06-24T22:13:06.615Z,8.10
2017-06-24T22:15:38.956Z,8.03
2017-06-24T22:18:11.260Z,7.33
2017-06-24T22:20:43.626Z,7.40
2017-06-24T22:23:16.000Z,7.27
2017-06-24T22:25:49.245Z,6.20
2017-06-24T22:28:21.764Z,7.33
2017-06-24T22:30:54.037Z,7.20
2017-06-24T22:33:26.432Z,7.30
2017-06-24T22:35:58.797Z,7.00
2017-06-24T22:38:31.281Z,7.13
2017-06-24T22:41:03.676Z,7.07
2017-06-24T22:43:36.114Z,7.07
2017-06-24T22:46:08.685Z,7.33
2017-06-24T22:48:41.680Z,7.30
2017-06-24T22:51:14.183Z,6.37
2017-06-24T22:53:46.814Z,6.73
2017-06-24T22:56:19.759Z,6.63
2017-06-24T22:58:54.339Z,6.40
2017-06-24T23:01:26.656Z,6.90
2017-06-24T23:03:59.124Z,6.47
2017-06-24T23:06:32.152Z,6.43
2017-06-24T23:09:04.963Z,8.00
2017-06-24T23:11:38.180Z,7.60
2017-06-24T23:14:11.458Z,7.77
2017-06-24T23:16:44.090Z,7.50
2017-06-24T23:19:16.479Z,7.10
2017-06-24T23:21:48.828Z,7.40
2017-06-24T23:24:21.355Z,7.43
2017-06-24T23:26:53.587Z,8.30
2017-06-24T23:29:26.054Z,8.10
2017-06-24T23:31:58.443Z,8.03
2017-06-24T23:34:30.743Z,7.70
2017-06-24T23:37:03.355Z,8.00
2017-06-24T23:39:37.088Z,7.73
2017-06-24T23:42:10.501Z,8.03
2017-06-24T23:44:43.220Z,7.50
2017-06-24T23:47:15.443Z,8.23
2017-06-24T23:49:48.288Z,8.80
2017-06-24T23:52:21.102Z,7.80
2017-06-24T23:54:53.599Z,7.33
2017-06-24T23:57:25.855Z,8.47
2017-06-24T23:59:58.172Z,8.43
